Flight Track Log - Related Links

Times and Time Zones

All times are in EDT time to prevent confusion due to time zone crossing. See the UCA4838 flight status page for this flight to view local times or setup timezone preferences in your user account.

Time Position Orientation Groundspeed Altitude Reporting Facility
EDT Latitude Longitude Course Direction KTS MPH feet Rate Location/Type
Tue 09:59:38 AM 42.7278 -73.8081 208° Southwest 146 168 1,000  Level Boston Center
Tue 10:00:33 AM 42.6881 -73.8072 179° South 159 183 2,000 1,190 Climbing Boston Center
Tue 10:01:34 AM 42.6522 -73.8403 214° Southwest 165 190 3,300 1,289 Climbing Boston Center
Tue 10:02:34 AM 42.6122 -73.8761 213° Southwest 167 192 4,600 1,438 Climbing Boston Center
Tue 10:03:35 AM 42.5703 -73.9089 210° Southwest 167 192 6,200 1,488 Climbing Boston Center
Tue 10:04:35 AM 42.5300 -73.9417 211° Southwest 163 188 7,600 1,259 Climbing Boston Center
Tue 10:05:00 AM 42.3623 -73.8728 208° Southwest  Level Estimated
Tue 10:06:17 AM 42.4689 -73.9908 211° Southwest 168 193 9,600  Level Boston Center
Tue 10:07:17 AM 42.4206 -74.0292 210° Southwest 178 205 10,000 600 Climbing Boston Center
Tue 10:08:17 AM 42.3761 -74.0672 212° Southwest 209 241 10,800 1,000 Climbing Boston Center
Tue 10:09:17 AM 42.3319 -74.1056 213° Southwest 204 235 12,000 600 Climbing Boston Center
Tue 10:10:17 AM 42.2750 -74.1517 211° Southwest 211 243 12,000  Level Boston Center
Tue 10:11:17 AM 42.2264 -74.1925 212° Southwest 232 267 12,000  Level Boston Center
Tue 10:12:17 AM 42.1589 -74.2408 208° Southwest 242 278 12,000  Level Boston Center
Tue 10:13:17 AM 42.1022 -74.2700 201° Southwest 247 284 12,000  Level Boston Center
Tue 10:14:17 AM 42.0286 -74.3044 199° South 254 292 12,000  Level Boston Center
Tue 10:15:29 AM 41.9656 -74.3331 199° South 254 292 12,000 -409 Level Boston Center
Tue 10:16:29 AM 41.8900 -74.3700 200° South 260 299 11,100 -1,300 Descending Boston Center
Tue 10:17:29 AM 41.8017 -74.4117 199° South 277 319 9,400 -1,500 Descending Boston Center
Tue 10:18:29 AM 41.7303 -74.4458 200° South 282 325 8,100 -1,200 Descending Boston Center
Tue 10:19:29 AM 41.6800 -74.4664 197° South 277 319 7,000 -550 Descending Boston Center
Tue 10:20:29 AM 41.5936 -74.5081 200° South 262 302 7,000  Level Boston Center
Tue 10:21:29 AM 41.5286 -74.5392 200° South 257 296 7,000 -298 Level Boston Center
Tue 10:23:30 AM 41.4000 -74.6000 200° South 251 289 6,100 -298 Descending New York TRACON
Tue 10:24:30 AM 41.3333 -74.5667 159° South 259 298 6,100 -313 Level New York TRACON
Tue 10:25:25 AM 41.2833 -74.5167 143° Southeast 268 308 5,500 -500 Descending New York TRACON
Tue 10:26:30 AM 41.2167 -74.4500 143° Southeast 261 300 5,100 -192 Descending New York TRACON
Tue 10:27:30 AM 41.1500 -74.3833 143° Southeast 264 304 5,100  Level New York TRACON
Tue 10:28:30 AM 41.1000 -74.3333 143° Southeast 266 306 5,100  Level New York TRACON
Tue 10:29:31 AM 41.0500 -74.2667 135° Southeast 265 305 5,100 -298 Level New York TRACON
Tue 10:30:31 AM 40.9833 -74.2000 143° Southeast 269 310 4,500 -807 Descending New York TRACON
Tue 10:31:30 AM 40.9333 -74.1500 143° Southeast 265 305 3,500 -800 Descending New York TRACON
Tue 10:32:31 AM 40.8667 -74.0833 143° Southeast 259 298 2,900 -595 Descending New York TRACON
Tue 10:33:31 AM 40.8000 -74.1000 191° South 223 257 2,300 -600 Descending New York TRACON

Login

Don't have an account? Register now (free) for customized features, flight alerts, and more!